Time;durP1;ratioP1;P1;durP2;ratioP2;P2;SDS_P1;SDS_P2;PMS_P1;PMS_P2;Temp;Humidity;BMP_temperature;BMP_pressure;BME280_temperature;BME280_humidity;BME280_pressure;Samples;Min_cycle;Max_cycle;Signal;HPM_P1;HPM_P2
2023/11/02 00:01:54;;;;;;;15.60;4.80;;;;;;;8.17;91.81;99155.26;110795;1269;22180;-81
2023/11/02 00:04:24;;;;;;;16.20;5.50;;;;;;;8.16;91.91;99152.66;110802;1272;22324;-80
2023/11/02 00:06:53;;;;;;;15.60;5.70;;;;;;;8.16;91.91;99150.48;110809;1269;22370;-80
2023/11/02 00:09:44;;;;;;;22.90;7.20;;;;;;;8.15;91.78;99152.49;110752;1262;22230;-79
2023/11/02 00:12:18;;;;;;;27.20;10.40;;;;;;;8.13;91.81;99154.23;110803;1272;22213;-80
2023/11/02 00:14:51;;;;;;;27.30;9.10;;;;;;;8.10;91.63;99158.55;110761;1269;22505;-79
2023/11/02 00:17:53;;;;;;;28.70;10.70;;;;;;;8.07;91.80;99163.01;110659;1272;22261;-79
2023/11/02 00:20:39;;;;;;;23.80;9.20;;;;;;;8.03;91.70;99163.08;110180;1277;22239;-80
2023/11/02 00:23:11;;;;;;;27.10;9.60;;;;;;;8.01;91.68;99153.69;110161;1278;23081;-80
2023/11/02 00:25:49;;;;;;;26.40;10.20;;;;;;;7.98;91.72;99148.55;110183;1278;22269;-80
2023/11/02 00:28:19;;;;;;;31.00;12.30;;;;;;;7.95;91.84;99138.77;110154;1278;22406;-80
2023/11/02 00:30:48;;;;;;;24.10;9.80;;;;;;;7.94;91.77;99130.27;110172;1278;22437;-79
2023/11/02 00:33:17;;;;;;;24.80;8.90;;;;;;;7.93;91.91;99126.06;110214;1275;22235;-79
2023/11/02 00:35:49;;;;;;;23.40;7.40;;;;;;;7.92;91.84;99127.41;110174;1278;23186;-79
2023/11/02 00:38:24;;;;;;;15.60;5.90;;;;;;;7.89;91.92;99132.09;110222;1279;22109;-79
2023/11/02 00:40:57;;;;;;;17.60;5.60;;;;;;;7.86;91.93;99141.44;110239;1278;22238;-79
2023/11/02 00:43:28;;;;;;;20.70;7.40;;;;;;;7.84;91.97;99142.16;110175;1272;22886;-79
2023/11/02 00:45:56;;;;;;;19.80;7.70;;;;;;;7.82;91.86;99138.06;110211;1278;22864;-79
2023/11/02 00:48:29;;;;;;;20.60;6.70;;;;;;;7.82;92.00;99125.88;110159;1279;22197;-80
2023/11/02 00:51:19;;;;;;;19.20;6.70;;;;;;;7.80;92.04;99125.35;110098;1268;22221;-80
2023/11/02 00:53:52;;;;;;;18.00;6.90;;;;;;;7.77;92.20;99122.39;110208;1278;22430;-80
2023/11/02 00:56:20;;;;;;;22.00;7.30;;;;;;;7.76;92.24;99115.30;110221;1275;22209;-80
2023/11/02 00:58:53;;;;;;;26.80;9.10;;;;;;;7.76;92.20;99110.40;110824;1267;22433;-79
2023/11/02 01:01:22;;;;;;;24.80;8.30;;;;;;;7.76;92.35;99105.87;110821;1262;22205;-80
2023/11/02 01:03:54;;;;;;;17.80;4.70;;;;;;;7.75;92.50;99106.27;110742;1270;22001;-80
2023/11/02 01:06:26;;;;;;;15.70;5.40;;;;;;;7.75;92.53;99104.02;110757;1272;23088;-80
2023/11/02 01:09:04;;;;;;;17.00;4.80;;;;;;;7.75;92.53;99107.27;110802;1266;22432;-80
2023/11/02 01:11:35;;;;;;;19.60;5.10;;;;;;;7.74;92.34;99103.45;110769;1272;22168;-80
2023/11/02 01:14:31;;;;;;;15.60;4.80;;;;;;;7.71;92.30;99100.80;110763;1272;22187;-80
2023/11/02 01:17:00;;;;;;;12.90;4.20;;;;;;;7.67;92.23;99101.85;110635;1266;23010;-80
2023/11/02 01:19:53;;;;;;;12.70;3.40;;;;;;;7.62;92.29;99103.12;110850;1266;22516;-80
2023/11/02 01:22:54;;;;;;;11.80;2.80;;;;;;;7.57;92.13;99104.48;110195;1278;22210;-81
2023/11/02 01:25:27;;;;;;;12.60;3.20;;;;;;;7.52;92.37;99099.14;110206;1279;22226;-80
2023/11/02 01:28:01;;;;;;;12.00;3.40;;;;;;;7.48;92.41;99086.61;110245;1272;22213;-80
2023/11/02 01:31:10;;;;;;;17.00;3.90;;;;;;;7.46;92.37;99074.73;110241;1279;22243;-80
2023/11/02 01:34:09;;;;;;;12.80;4.20;;;;;;;7.45;92.66;99079.47;110182;1279;22275;-80
2023/11/02 01:36:40;;;;;;;16.50;4.90;;;;;;;7.44;92.65;99089.05;109842;1277;22268;-80
2023/11/02 01:39:39;;;;;;;20.10;6.60;;;;;;;7.46;92.92;99086.98;109882;1283;22183;-80
2023/11/02 01:42:16;;;;;;;18.30;5.00;;;;;;;7.47;93.09;99082.00;109841;1283;22787;-80
2023/11/02 01:44:51;;;;;;;14.20;4.20;;;;;;;7.44;92.86;99077.08;109878;1283;23216;-80
2023/11/02 01:47:36;;;;;;;15.70;4.60;;;;;;;7.41;92.64;99075.12;109857;1283;22231;-79
2023/11/02 01:50:12;;;;;;;14.00;4.00;;;;;;;7.39;92.44;99071.66;109887;1283;23163;-80
2023/11/02 01:53:07;;;;;;;17.00;4.60;;;;;;;7.37;92.55;99070.83;109907;1283;22473;-80
2023/11/02 01:55:55;;;;;;;19.60;6.00;;;;;;;7.36;92.64;99057.09;109871;1283;22255;-80
2023/11/02 01:58:32;;;;;;;28.80;12.10;;;;;;;7.34;92.70;99055.00;109869;1280;22189;-80
2023/11/02 02:01:08;;;;;;;29.70;12.40;;;;;;;7.34;92.78;99050.85;110283;1278;23151;-80
2023/11/02 02:03:44;;;;;;;26.70;11.20;;;;;;;7.32;92.91;99055.02;110261;1278;22198;-80
2023/11/02 02:06:21;;;;;;;23.00;8.70;;;;;;;7.32;92.84;99051.12;110276;1270;22572;-80
2023/11/02 02:09:11;;;;;;;13.30;3.70;;;;;;;7.29;92.74;99046.23;110287;1274;23105;-80
2023/11/02 02:11:58;;;;;;;15.00;4.30;;;;;;;7.22;92.60;99046.36;110258;1278;22204;-80
2023/11/02 02:14:43;;;;;;;15.30;3.70;;;;;;;7.16;92.44;99050.67;110468;1273;23119;-80
2023/11/02 02:17:22;;;;;;;11.90;3.20;;;;;;;7.09;92.22;99041.50;110650;1272;22676;-80
2023/11/02 02:20:07;;;;;;;10.10;2.60;;;;;;;7.03;92.08;99039.00;110847;1272;22243;-80
2023/11/02 02:22:45;;;;;;;9.00;2.40;;;;;;;6.97;92.07;99033.16;110882;1266;22474;-80
2023/11/02 02:25:23;;;;;;;9.60;2.80;;;;;;;6.93;91.94;99030.02;110651;1272;22213;-80
2023/11/02 02:28:25;;;;;;;14.30;4.00;;;;;;;6.88;91.97;99025.91;110801;1272;22380;-80
2023/11/02 02:31:25;;;;;;;14.30;3.60;;;;;;;6.84;92.12;99021.27;110812;1260;22980;-80
2023/11/02 02:34:37;;;;;;;16.50;3.50;;;;;;;6.83;92.32;99015.45;110215;1271;22165;-80
2023/11/02 02:37:10;;;;;;;10.90;2.70;;;;;;;6.83;92.52;99017.66;110183;1278;22217;-80
2023/11/02 02:39:40;;;;;;;11.40;2.80;;;;;;;6.82;92.65;99018.82;110201;1278;22260;-80
2023/11/02 02:42:14;;;;;;;11.70;2.50;;;;;;;6.83;92.96;99016.41;110160;1271;22274;-80
2023/11/02 02:44:46;;;;;;;9.10;2.00;;;;;;;6.82;92.94;99010.24;110217;1278;22563;-80
2023/11/02 02:47:17;;;;;;;13.80;3.00;;;;;;;6.82;93.05;99005.30;110229;1278;22216;-80
2023/11/02 02:49:49;;;;;;;10.30;2.90;;;;;;;6.82;93.15;99002.92;110249;1278;22189;-80
2023/11/02 02:52:22;;;;;;;11.80;2.50;;;;;;;6.81;93.09;98996.35;110216;1275;22210;-80
2023/11/02 02:54:56;;;;;;;10.80;2.80;;;;;;;6.82;93.17;98991.17;110381;1278;23131;-80
2023/11/02 02:57:28;;;;;;;13.10;2.50;;;;;;;6.82;93.25;98987.39;110476;1278;22262;-80
2023/11/02 03:00:00;;;;;;;9.90;2.00;;;;;;;6.79;93.12;98979.19;110356;1273;22226;-80
2023/11/02 03:02:32;;;;;;;11.20;2.70;;;;;;;6.80;93.25;98970.77;110231;1272;22255;-79
2023/11/02 03:05:02;;;;;;;11.90;2.30;;;;;;;6.81;93.36;98968.23;110255;1264;22945;-80
2023/11/02 03:07:31;;;;;;;11.60;2.30;;;;;;;6.84;93.69;98960.75;110109;1278;22945;-80
2023/11/02 03:10:02;;;;;;;12.10;1.70;;;;;;;6.87;93.74;98956.89;110385;1273;22304;-80
2023/11/02 03:12:34;;;;;;;12.80;2.40;;;;;;;6.89;93.98;98953.73;110713;1270;22892;-80
2023/11/02 03:15:06;;;;;;;8.20;1.70;;;;;;;6.91;94.06;98949.84;110839;1266;22220;-80
2023/11/02 03:17:50;;;;;;;10.40;1.80;;;;;;;6.91;93.99;98953.67;110659;1272;23067;-80
2023/11/02 03:20:18;;;;;;;10.10;1.90;;;;;;;6.92;94.12;98960.54;110834;1272;22173;-80
2023/11/02 03:22:46;;;;;;;10.00;2.20;;;;;;;6.94;94.27;98957.90;110775;1272;23258;-80
2023/11/02 03:25:32;;;;;;;9.40;2.20;;;;;;;6.96;94.44;98957.77;110777;1272;22235;-80
2023/11/02 03:28:15;;;;;;;9.80;1.90;;;;;;;6.97;94.31;98954.09;110807;1272;22511;-80
2023/11/02 03:30:54;;;;;;;7.80;1.80;;;;;;;6.96;94.48;98949.36;110616;1272;22126;-80
2023/11/02 03:33:36;;;;;;;9.50;2.10;;;;;;;6.96;94.57;98945.30;110836;1272;22652;-80
2023/11/02 03:36:10;;;;;;;9.90;1.90;;;;;;;6.97;94.69;98951.63;110787;1266;22383;-80
2023/11/02 03:38:55;;;;;;;7.40;2.00;;;;;;;6.97;94.69;98950.72;110843;1272;23192;-80
2023/11/02 03:41:37;;;;;;;9.20;1.90;;;;;;;6.98;94.77;98946.80;110586;1273;22214;-80
2023/11/02 03:44:15;;;;;;;9.80;2.00;;;;;;;6.98;94.63;98941.80;110734;1269;22669;-80
2023/11/02 03:46:53;;;;;;;10.10;2.20;;;;;;;6.99;94.64;98938.64;110729;1272;22212;-80
2023/11/02 03:49:26;;;;;;;8.30;2.20;;;;;;;6.99;94.63;98932.39;110802;1266;22231;-80
2023/11/02 03:52:09;;;;;;;9.70;2.00;;;;;;;6.99;94.62;98934.55;110767;1272;22139;-80
2023/11/02 03:54:52;;;;;;;8.90;1.90;;;;;;;6.97;94.58;98929.23;110792;1272;22169;-80
2023/11/02 03:57:30;;;;;;;8.60;2.10;;;;;;;6.97;94.73;98929.84;110657;1270;22216;-80
2023/11/02 04:00:09;;;;;;;11.90;1.80;;;;;;;6.96;94.78;98935.08;110855;1272;22186;-80
2023/11/02 04:02:45;;;;;;;7.70;1.50;;;;;;;6.95;94.61;98933.64;110802;1268;22955;-79
2023/11/02 04:05:19;;;;;;;9.20;1.80;;;;;;;6.95;94.76;98929.91;110775;1272;22203;-80
2023/11/02 04:08:05;;;;;;;12.10;1.90;;;;;;;6.96;94.72;98922.52;110621;1267;22174;-80
2023/11/02 04:10:37;;;;;;;10.90;2.00;;;;;;;6.96;94.79;98916.45;110827;1272;22145;-80
2023/11/02 04:13:14;;;;;;;8.10;1.40;;;;;;;6.97;95.00;98911.82;110871;1272;22977;-80
2023/11/02 04:15:43;;;;;;;9.40;1.60;;;;;;;6.98;95.12;98909.46;110813;1272;22263;-80
2023/11/02 04:18:11;;;;;;;8.50;1.60;;;;;;;6.99;95.19;98908.94;110774;1272;22203;-80
2023/11/02 04:20:42;;;;;;;15.90;2.10;;;;;;;7.00;95.41;98909.65;110738;1272;22197;-79
2023/11/02 04:23:11;;;;;;;9.20;1.60;;;;;;;7.02;95.40;98907.61;110750;1272;22645;-79
2023/11/02 04:25:39;;;;;;;7.60;1.60;;;;;;;7.03;95.48;98898.23;110770;1266;22167;-80
2023/11/02 04:28:07;;;;;;;8.80;2.30;;;;;;;7.05;95.60;98894.52;110713;1272;22158;-80
2023/11/02 04:30:35;;;;;;;8.70;1.90;;;;;;;7.09;95.64;98892.64;110721;1268;22134;-80
2023/11/02 04:33:04;;;;;;;9.40;1.60;;;;;;;7.10;95.57;98888.06;110758;1265;22183;-79
2023/11/02 04:35:32;;;;;;;8.90;2.20;;;;;;;7.10;95.69;98881.05;110727;1272;22160;-80
2023/11/02 04:38:07;;;;;;;8.50;2.00;;;;;;;7.11;95.91;98877.73;110785;1257;22298;-80
2023/11/02 04:40:36;;;;;;;8.00;2.10;;;;;;;7.11;95.89;98869.81;110785;1272;22283;-80
2023/11/02 04:43:05;;;;;;;10.90;1.90;;;;;;;7.12;96.06;98867.64;110738;1266;22382;-80
2023/11/02 04:45:34;;;;;;;10.60;2.20;;;;;;;7.13;96.07;98858.54;110763;1268;22228;-80
2023/11/02 04:48:02;;;;;;;9.10;1.90;;;;;;;7.13;96.22;98855.41;110799;1272;22193;-80
2023/11/02 04:50:31;;;;;;;12.50;2.70;;;;;;;7.14;96.16;98852.64;110599;1269;22250;-80
2023/11/02 04:53:01;;;;;;;10.90;3.10;;;;;;;7.15;96.30;98845.29;110739;1272;22398;-80
2023/11/02 04:55:30;;;;;;;18.40;3.40;;;;;;;7.17;96.34;98839.09;110606;1269;22295;-80
2023/11/02 04:57:58;;;;;;;14.00;4.00;;;;;;;7.17;96.37;98837.64;110667;1272;22181;-80
2023/11/02 05:00:26;;;;;;;13.30;3.80;;;;;;;7.17;96.44;98836.63;110567;1273;23129;-79
2023/11/02 05:02:54;;;;;;;14.20;3.70;;;;;;;7.18;96.38;98840.37;110756;1266;22350;-80
2023/11/02 05:05:22;;;;;;;13.90;4.00;;;;;;;7.19;96.51;98836.34;110762;1272;22219;-80
2023/11/02 05:07:51;;;;;;;16.40;4.10;;;;;;;7.19;96.53;98830.39;110702;1267;22341;-80
2023/11/02 05:10:19;;;;;;;15.60;4.70;;;;;;;7.20;96.61;98830.50;110799;1272;23111;-80
2023/11/02 05:12:47;;;;;;;13.50;4.70;;;;;;;7.20;96.52;98827.52;110738;1271;23255;-80
2023/11/02 05:15:16;;;;;;;16.60;6.70;;;;;;;7.21;96.79;98819.40;110717;1272;22461;-80
2023/11/02 05:17:44;;;;;;;17.10;6.50;;;;;;;7.21;96.60;98823.79;110735;1260;22214;-80
2023/11/02 05:20:13;;;;;;;15.10;5.90;;;;;;;7.20;96.82;98820.25;110778;1272;22194;-80
2023/11/02 05:22:43;;;;;;;13.50;4.90;;;;;;;7.21;96.82;98822.28;110690;1269;23021;-80
2023/11/02 05:25:12;;;;;;;17.20;5.60;;;;;;;7.21;96.76;98818.04;110754;1272;22918;-80
2023/11/02 05:27:41;;;;;;;16.90;5.90;;;;;;;7.21;96.85;98803.61;110655;1266;22148;-80
2023/11/02 05:30:13;;;;;;;13.00;4.90;;;;;;;7.22;96.76;98791.10;110703;1272;22189;-79
2023/11/02 05:32:42;;;;;;;16.70;5.20;;;;;;;7.24;96.85;98792.79;110528;1273;22218;-80
2023/11/02 05:35:12;;;;;;;12.40;4.40;;;;;;;7.24;96.68;98791.87;110722;1272;22395;-80
2023/11/02 05:37:41;;;;;;;14.90;3.90;;;;;;;7.20;96.83;98795.28;110816;1267;22151;-79
2023/11/02 05:40:11;;;;;;;11.40;3.40;;;;;;;7.20;96.82;98794.57;110745;1272;22173;-79
2023/11/02 05:42:42;;;;;;;14.70;3.70;;;;;;;7.20;96.93;98789.52;110538;1270;22860;-79
2023/11/02 05:45:10;;;;;;;;;;;;;;;7.20;96.91;98783.68;110753;1272;22443;-79
2023/11/02 05:47:38;;;;;;;11.50;3.50;;;;;;;7.22;97.00;98780.10;110734;1269;22580;-79
2023/11/02 05:50:08;;;;;;;15.10;3.90;;;;;;;7.22;96.99;98778.48;110751;1269;22251;-79
2023/11/02 05:52:38;;;;;;;15.50;3.90;;;;;;;7.21;97.02;98782.27;110708;1272;23066;-79
2023/11/02 05:55:10;;;;;;;12.80;4.70;;;;;;;7.20;97.03;98786.45;110515;1272;22322;-81
2023/11/02 05:57:39;;;;;;;18.70;4.70;;;;;;;7.21;97.04;98785.09;110733;1272;22297;-79
2023/11/02 06:00:10;;;;;;;14.60;3.90;;;;;;;7.23;97.11;98782.98;110737;1268;22221;-78
2023/11/02 06:02:40;;;;;;;13.90;4.10;;;;;;;7.22;97.08;98773.79;110685;1262;22263;-79
2023/11/02 06:05:10;;;;;;;13.20;4.20;;;;;;;7.23;97.05;98768.15;110618;1273;22168;-79
2023/11/02 06:07:38;;;;;;;12.70;3.70;;;;;;;7.23;97.12;98768.50;110748;1272;22207;-80
2023/11/02 06:10:08;;;;;;;11.80;3.30;;;;;;;7.24;97.09;98777.24;110751;1272;22261;-79
2023/11/02 06:12:36;;;;;;;11.80;3.30;;;;;;;7.25;97.16;98780.63;110708;1272;22207;-79
2023/11/02 06:15:06;;;;;;;14.80;4.20;;;;;;;7.24;97.16;98776.83;110733;1267;22160;-80
2023/11/02 06:17:34;;;;;;;15.80;3.20;;;;;;;7.24;97.22;98768.96;110796;1272;22879;-79
2023/11/02 06:20:05;;;;;;;13.50;3.10;;;;;;;7.26;97.14;98770.34;110703;1272;22379;-79
2023/11/02 06:22:39;;;;;;;9.20;2.90;;;;;;;7.26;97.19;98770.20;110817;1272;22195;-80
2023/11/02 06:25:08;;;;;;;14.10;4.50;;;;;;;7.27;97.16;98760.96;110790;1272;22883;-79
2023/11/02 06:27:37;;;;;;;15.00;3.40;;;;;;;7.29;97.30;98757.85;110790;1272;22207;-79
2023/11/02 06:30:08;;;;;;;16.00;4.80;;;;;;;7.30;97.48;98754.13;110765;1272;22175;-79
2023/11/02 06:32:36;;;;;;;17.70;6.00;;;;;;;7.31;97.68;98749.05;110680;1272;22139;-80
2023/11/02 06:35:06;;;;;;;16.60;6.40;;;;;;;7.34;97.69;98748.15;110791;1272;22218;-78
2023/11/02 06:37:53;;;;;;;18.80;6.20;;;;;;;7.39;98.23;98746.67;110587;1272;23138;-80
2023/11/02 06:40:22;;;;;;;17.90;5.90;;;;;;;7.45;98.58;98736.63;110789;1272;22151;-79
2023/11/02 06:42:52;;;;;;;22.90;5.90;;;;;;;7.50;98.88;98732.38;110714;1272;22147;-79
2023/11/02 06:45:20;;;;;;;18.90;5.70;;;;;;;7.55;98.97;98727.91;110772;1272;22192;-80
2023/11/02 06:47:49;;;;;;;18.50;4.60;;;;;;;7.60;99.05;98714.75;110718;1272;22352;-79
2023/11/02 06:50:18;;;;;;;18.50;5.60;;;;;;;7.65;99.16;98699.34;110699;1272;22202;-81
2023/11/02 06:52:46;;;;;;;21.40;6.00;;;;;;;7.69;99.02;98684.91;110703;1272;22869;-80
2023/11/02 06:55:14;;;;;;;14.30;4.50;;;;;;;7.72;99.04;98682.46;110789;1272;22545;-80
2023/11/02 06:57:42;;;;;;;14.50;3.90;;;;;;;7.77;99.26;98683.55;110804;1272;22367;-79
2023/11/02 07:00:15;;;;;;;16.10;3.30;;;;;;;7.82;99.64;98684.13;110751;1267;22181;-79
2023/11/02 07:02:44;;;;;;;14.30;2.80;;;;;;;7.86;99.74;98674.15;110825;1272;22196;-83
2023/11/02 07:05:14;;;;;;;9.10;2.70;;;;;;;7.92;100.00;98667.66;110765;1272;23011;-79
2023/11/02 07:07:44;;;;;;;12.60;2.90;;;;;;;7.97;99.97;98660.40;110765;1272;22612;-80
2023/11/02 07:10:14;;;;;;;12.90;3.10;;;;;;;8.01;100.00;98661.98;110742;1272;22438;-79
2023/11/02 07:12:43;;;;;;;13.30;3.70;;;;;;;8.07;100.00;98659.08;110721;1272;23245;-79
2023/11/02 07:15:13;;;;;;;16.10;5.50;;;;;;;8.11;99.93;98654.15;110751;1268;22444;-79
2023/11/02 07:17:42;;;;;;;15.20;4.90;;;;;;;8.15;100.00;98653.65;110549;1272;22168;-79
2023/11/02 07:20:11;;;;;;;15.40;4.70;;;;;;;8.21;100.00;98656.80;110695;1272;22921;-79
2023/11/02 07:22:40;;;;;;;14.00;4.00;;;;;;;8.25;100.00;98658.54;110730;1272;22297;-80
2023/11/02 07:25:12;;;;;;;;;;;;;;;8.30;100.00;98655.64;110744;1272;23770;-77
2023/11/02 07:27:41;;;;;;;19.30;5.40;;;;;;;8.33;100.00;98650.23;110717;1272;23030;-79
2023/11/02 07:30:14;;;;;;;19.00;6.20;;;;;;;8.37;100.00;98644.17;110722;1268;22337;-77
2023/11/02 07:32:42;;;;;;;20.70;5.90;;;;;;;8.40;100.00;98630.73;110690;1272;22245;-79
2023/11/02 07:35:11;;;;;;;19.40;5.00;;;;;;;8.45;100.00;98634.09;110708;1272;22266;-79
2023/11/02 07:37:42;;;;;;;26.50;6.80;;;;;;;8.50;100.00;98638.20;110711;1272;22194;-79
2023/11/02 07:40:15;;;;;;;28.00;10.30;;;;;;;8.58;100.00;98641.17;110697;1272;22280;-80
2023/11/02 07:42:48;;;;;;;27.10;7.80;;;;;;;8.64;100.00;98633.75;110759;1272;22190;-81
2023/11/02 07:45:16;;;;;;;23.60;6.80;;;;;;;8.71;100.00;98628.91;110712;1272;22386;-78
2023/11/02 07:47:46;;;;;;;19.70;6.60;;;;;;;8.77;100.00;98625.02;110738;1272;22169;-79
2023/11/02 07:50:15;;;;;;;19.80;5.90;;;;;;;8.84;100.00;98627.39;110734;1272;22870;-79
2023/11/02 07:52:45;;;;;;;16.40;4.70;;;;;;;8.91;100.00;98624.05;110796;1263;22335;-81
2023/11/02 07:55:13;;;;;;;17.10;4.80;;;;;;;8.96;100.00;98626.77;110720;1272;22185;-79
2023/11/02 07:57:42;;;;;;;15.30;4.20;;;;;;;9.02;100.00;98623.44;110723;1269;22185;-79
2023/11/02 08:00:15;;;;;;;19.20;5.00;;;;;;;9.08;100.00;98610.08;110708;1272;22912;-79
2023/11/02 08:02:43;;;;;;;17.70;4.30;;;;;;;9.15;100.00;98603.73;110769;1272;22372;-78
2023/11/02 08:05:11;;;;;;;22.10;5.90;;;;;;;9.22;100.00;98603.36;110500;1273;22914;-79
2023/11/02 08:07:42;;;;;;;19.80;5.20;;;;;;;9.28;100.00;98605.98;110564;1272;22180;-80
2023/11/02 08:10:10;;;;;;;19.40;4.30;;;;;;;9.35;100.00;98602.67;110691;1272;22151;-79
2023/11/02 08:12:39;;;;;;;19.60;4.50;;;;;;;9.42;100.00;98601.34;110738;1272;22226;-81
2023/11/02 08:15:08;;;;;;;19.10;5.20;;;;;;;9.50;100.00;98598.78;110671;1272;22197;-79
2023/11/02 08:17:37;;;;;;;19.30;5.20;;;;;;;9.58;100.00;98589.54;110700;1272;22362;-79
2023/11/02 08:20:09;;;;;;;14.50;4.00;;;;;;;9.68;100.00;98590.52;110696;1269;22619;-79
2023/11/02 08:22:38;;;;;;;15.50;4.50;;;;;;;9.76;99.99;98589.07;110683;1272;22267;-80
2023/11/02 08:25:08;;;;;;;16.80;3.70;;;;;;;9.86;100.00;98581.98;110745;1272;22377;-80
2023/11/02 08:27:37;;;;;;;19.60;4.70;;;;;;;9.94;99.98;98576.58;110705;1269;23060;-79
2023/11/02 08:30:07;;;;;;;12.40;4.30;;;;;;;10.03;99.93;98572.16;110765;1272;22214;-79
2023/11/02 08:32:36;;;;;;;16.00;4.20;;;;;;;10.12;99.83;98568.42;110758;1272;22674;-80
2023/11/02 08:35:06;;;;;;;13.50;3.70;;;;;;;10.20;99.71;98564.69;110705;1272;22165;-80
2023/11/02 08:37:34;;;;;;;19.50;3.50;;;;;;;10.29;99.55;98562.39;110664;1268;22178;-79
2023/11/02 08:40:05;;;;;;;16.00;4.40;;;;;;;10.37;99.51;98560.41;110700;1272;22199;-79
2023/11/02 08:42:34;;;;;;;13.30;4.40;;;;;;;10.44;99.16;98553.96;110698;1272;22214;-79
2023/11/02 08:45:03;;;;;;;15.90;4.60;;;;;;;10.50;99.20;98549.15;110725;1267;22400;-79
2023/11/02 08:47:34;;;;;;;13.70;3.10;;;;;;;10.57;99.22;98547.08;110747;1268;23156;-79
2023/11/02 08:50:03;;;;;;;9.90;3.60;;;;;;;10.66;98.98;98539.69;108274;1267;22549;-81
2023/11/02 08:52:31;;;;;;;9.00;2.40;;;;;;;10.72;98.72;98529.44;108163;1272;22582;-78
2023/11/02 08:55:00;;;;;;;10.70;2.90;;;;;;;10.81;98.63;98517.33;108191;1272;22703;-78
2023/11/02 08:57:29;;;;;;;12.00;2.70;;;;;;;10.89;98.31;98517.70;110695;1272;22307;-79
2023/11/02 08:59:58;;;;;;;9.30;2.40;;;;;;;10.95;98.00;98517.80;110643;1272;23206;-79
2023/11/02 09:02:27;;;;;;;10.40;2.30;;;;;;;11.02;97.75;98516.45;110743;1272;22581;-79
2023/11/02 09:04:55;;;;;;;11.00;2.90;;;;;;;11.09;97.79;98518.46;110704;1272;23147;-79
2023/11/02 09:07:23;;;;;;;10.10;2.40;;;;;;;11.16;97.73;98520.98;110673;1272;22373;-79
2023/11/02 09:09:52;;;;;;;11.10;1.80;;;;;;;11.23;97.61;98523.63;110645;1272;22354;-78
2023/11/02 09:12:21;;;;;;;10.40;2.20;;;;;;;11.29;97.17;98521.55;110751;1269;22214;-78
2023/11/02 09:14:49;;;;;;;12.60;2.50;;;;;;;11.34;96.88;98520.87;110685;1268;22154;-77
2023/11/02 09:17:18;;;;;;;10.60;2.50;;;;;;;11.40;96.83;98517.40;110612;1272;22393;-80
2023/11/02 09:19:46;;;;;;;10.00;2.50;;;;;;;11.47;96.35;98517.88;110689;1272;22164;-78
2023/11/02 09:22:15;;;;;;;10.00;2.20;;;;;;;11.54;96.42;98516.62;110710;1272;22282;-78
2023/11/02 09:24:44;;;;;;;7.30;2.00;;;;;;;11.61;96.18;98514.65;110722;1272;22276;-76
2023/11/02 09:27:13;;;;;;;9.60;2.10;;;;;;;11.69;95.89;98508.48;110684;1272;22173;-77
2023/11/02 09:29:41;;;;;;;5.60;1.50;;;;;;;11.77;95.69;98505.08;110689;1272;22466;-77
2023/11/02 09:32:10;;;;;;;6.90;1.50;;;;;;;11.84;95.43;98496.78;110687;1272;22157;-77
2023/11/02 09:34:39;;;;;;;6.80;1.40;;;;;;;11.92;95.16;98486.04;110759;1272;22267;-78
2023/11/02 09:37:07;;;;;;;9.80;2.00;;;;;;;12.02;94.88;98479.56;110728;1270;22987;-77
2023/11/02 09:39:36;;;;;;;10.10;3.20;;;;;;;12.13;94.31;98479.69;110711;1272;22476;-77
2023/11/02 09:42:05;;;;;;;7.60;1.70;;;;;;;12.21;94.22;98475.39;110702;1272;23091;-76
2023/11/02 09:44:34;;;;;;;6.00;1.50;;;;;;;12.28;93.66;98471.96;110735;1272;22332;-76
2023/11/02 09:47:03;;;;;;;12.20;2.00;;;;;;;12.34;93.25;98472.90;110735;1256;22203;-80
2023/11/02 09:49:32;;;;;;;6.90;1.90;;;;;;;12.41;93.11;98471.75;110726;1272;22991;-78
2023/11/02 09:52:01;;;;;;;10.90;2.70;;;;;;;12.48;92.71;98464.20;110773;1272;22933;-79
2023/11/02 09:54:29;;;;;;;6.60;1.90;;;;;;;12.53;92.38;98453.49;110828;1272;22370;-80
2023/11/02 09:56:58;;;;;;;7.90;2.00;;;;;;;12.56;92.04;98439.90;110804;1272;23014;-78
2023/11/02 09:59:27;;;;;;;7.50;2.00;;;;;;;12.58;91.66;98438.52;110763;1257;22411;-77
2023/11/02 10:01:57;;;;;;;6.20;1.70;;;;;;;12.63;91.51;98440.02;110786;1257;22341;-79
2023/11/02 10:04:25;;;;;;;5.00;1.40;;;;;;;12.73;90.80;98448.95;110809;1272;22330;-79
2023/11/02 10:06:54;;;;;;;5.70;1.70;;;;;;;12.81;91.12;98443.30;110785;1263;22592;-79
2023/11/02 10:09:24;;;;;;;6.60;1.50;;;;;;;12.85;90.03;98442.77;110771;1272;23014;-78
2023/11/02 10:11:55;;;;;;;6.80;1.40;;;;;;;12.92;89.93;98438.36;110786;1267;22376;-78
2023/11/02 10:14:23;;;;;;;6.40;1.40;;;;;;;12.98;89.93;98432.13;110785;1272;22247;-78
2023/11/02 10:17:02;;;;;;;7.00;1.30;;;;;;;13.04;90.00;98427.65;110791;1272;22404;-78
2023/11/02 10:19:33;;;;;;;7.40;1.40;;;;;;;13.11;89.01;98412.50;110773;1268;22270;-80
2023/11/02 10:22:02;;;;;;;;;;;;;;;13.20;88.94;98413.30;110780;1268;22452;-79
2023/11/02 10:24:32;;;;;;;5.70;1.40;;;;;;;13.24;88.51;98412.27;110789;1272;22465;-80
2023/11/02 10:27:01;;;;;;;9.50;1.90;;;;;;;13.28;88.84;98398.95;110798;1272;22194;-79
2023/11/02 10:29:30;;;;;;;8.30;1.90;;;;;;;13.33;88.70;98390.35;110784;1272;22175;-81
2023/11/02 10:31:58;;;;;;;14.70;3.90;;;;;;;13.40;88.54;98380.70;110767;1268;22173;-79
2023/11/02 10:34:28;;;;;;;16.60;3.30;;;;;;;13.48;88.30;98373.54;110725;1269;22323;-79
2023/11/02 10:36:57;;;;;;;15.50;4.20;;;;;;;13.56;87.32;98369.82;110810;1272;22127;-78
2023/11/02 10:39:26;;;;;;;13.40;2.70;;;;;;;13.62;85.83;98363.42;110671;1269;22204;-80
2023/11/02 10:41:58;;;;;;;8.50;1.70;;;;;;;13.69;84.99;98361.89;110808;1272;22323;-80
2023/11/02 10:44:30;;;;;;;6.10;1.40;;;;;;;13.78;85.20;98360.52;110727;1263;22333;-81
2023/11/02 10:47:00;;;;;;;10.60;2.60;;;;;;;13.83;85.52;98354.05;110763;1272;22375;-79
2023/11/02 10:49:32;;;;;;;5.80;1.30;;;;;;;13.87;84.88;98354.58;110728;1272;22460;-78
2023/11/02 10:52:07;;;;;;;5.80;1.30;;;;;;;13.89;84.32;98352.90;110786;1270;22400;-80
2023/11/02 10:54:44;;;;;;;6.30;1.30;;;;;;;13.91;84.66;98356.36;110784;1266;22243;-79
2023/11/02 10:57:19;;;;;;;7.70;1.80;;;;;;;13.95;84.85;98352.95;110661;1270;22156;-79
2023/11/02 10:59:49;;;;;;;5.50;1.30;;;;;;;13.96;84.55;98343.59;110789;1272;22412;-79
2023/11/02 11:02:18;;;;;;;8.30;1.30;;;;;;;14.00;84.59;98336.45;110741;1272;22187;-78
2023/11/02 11:04:48;;;;;;;5.50;1.20;;;;;;;14.04;84.54;98327.95;110740;1272;22172;-79
2023/11/02 11:07:16;;;;;;;7.50;1.20;;;;;;;14.08;83.77;98322.48;110833;1272;22267;-78
2023/11/02 11:09:48;;;;;;;14.00;2.50;;;;;;;14.13;83.79;98322.80;110801;1272;23015;-78
2023/11/02 11:12:18;;;;;;;10.30;2.00;;;;;;;14.15;83.39;98319.16;110711;1272;22239;-76
2023/11/02 11:14:46;;;;;;;10.50;1.70;;;;;;;14.20;82.97;98324.06;110717;1273;22395;-84
2023/11/02 11:17:15;;;;;;;14.40;2.70;;;;;;;14.21;82.88;98322.14;110718;1272;22199;-81
2023/11/02 11:19:45;;;;;;;12.90;2.40;;;;;;;14.22;82.98;98317.02;110775;1269;23140;-78
2023/11/02 11:22:15;;;;;;;4.60;1.30;;;;;;;14.22;82.53;98308.78;110768;1272;22387;-81
2023/11/02 11:24:54;;;;;;;6.40;1.20;;;;;;;14.24;82.22;98301.69;110742;1272;23136;-79
2023/11/02 11:27:31;;;;;;;8.00;1.10;;;;;;;14.29;82.17;98292.86;110749;1272;23209;-79
2023/11/02 11:30:00;;;;;;;4.90;1.10;;;;;;;14.30;81.47;98289.55;110740;1272;22385;-78
2023/11/02 11:32:36;;;;;;;6.40;1.20;;;;;;;14.29;81.38;98293.08;110740;1272;22175;-79
2023/11/02 11:35:13;;;;;;;4.60;0.80;;;;;;;14.26;80.99;98285.72;110486;1267;22199;-78
2023/11/02 11:37:45;;;;;;;7.00;1.10;;;;;;;14.24;81.09;98277.80;110705;1272;23051;-80
2023/11/02 11:40:31;;;;;;;10.40;1.00;;;;;;;14.24;81.18;98269.95;110771;1272;22154;-80
2023/11/02 11:43:03;;;;;;;10.80;1.20;;;;;;;14.26;81.52;98264.13;110769;1270;22680;-78
2023/11/02 11:45:32;;;;;;;5.10;0.90;;;;;;;14.29;80.98;98259.98;110762;1272;23034;-80
2023/11/02 11:48:02;;;;;;;3.60;0.90;;;;;;;14.35;81.23;98250.48;110724;1272;22417;-78
2023/11/02 11:50:37;;;;;;;3.90;0.70;;;;;;;14.41;81.47;98244.45;110732;1272;22804;-79